Time;durP1;ratioP1;P1;durP2;ratioP2;P2;SDS_P1;SDS_P2;PMS_P1;PMS_P2;Temp;Humidity;BMP_temperature;BMP_pressure;BME280_temperature;BME280_humidity;BME280_pressure;Samples;Min_cycle;Max_cycle;Signal;HPM_P1;HPM_P2
2023/04/27 00:01:56;;;;;;;4.93;1.80;;;5.90;99.90;;;;;;5068724;28;20479;-77
2023/04/27 00:04:25;;;;;;;2.90;1.93;;;5.80;99.90;;;;;;5060907;28;20460;-77
2023/04/27 00:06:52;;;;;;;2.60;1.60;;;5.80;99.90;;;;;;5064187;28;20475;-78
2023/04/27 00:09:19;;;;;;;3.40;2.40;;;5.70;99.90;;;;;;5068419;28;20463;-77
2023/04/27 00:11:46;;;;;;;2.10;1.77;;;5.60;99.90;;;;;;5060059;28;20445;-77
2023/04/27 00:14:13;;;;;;;2.60;2.17;;;5.60;99.90;;;;;;5060681;28;20452;-76
2023/04/27 00:16:40;;;;;;;3.13;2.50;;;5.60;99.90;;;;;;5064789;28;20447;-78
2023/04/27 00:19:07;;;;;;;3.43;2.60;;;5.60;99.90;;;;;;5063647;28;20476;-76
2023/04/27 00:21:36;;;;;;;3.30;3.00;;;5.60;99.90;;;;;;5068319;28;20878;-75
2023/04/27 00:24:03;;;;;;;4.00;1.87;;;5.60;99.90;;;;;;5068660;28;20444;-76
2023/04/27 00:26:30;;;;;;;2.40;1.97;;;5.60;99.90;;;;;;5062938;28;20529;-76
2023/04/27 00:28:57;;;;;;;3.60;2.97;;;5.60;99.90;;;;;;5066241;28;20468;-76
2023/04/27 00:31:24;;;;;;;5.30;3.80;;;5.60;99.90;;;;;;5055891;28;21021;-75
2023/04/27 00:33:51;;;;;;;2.23;2.10;;;5.60;99.90;;;;;;5058936;28;20542;-74
2023/04/27 00:36:18;;;;;;;1.83;1.73;;;5.60;99.90;;;;;;5061081;28;20510;-76
2023/04/27 00:38:46;;;;;;;2.80;2.50;;;5.60;99.90;;;;;;5064812;28;20514;-79
2023/04/27 00:41:13;;;;;;;3.70;3.17;;;5.70;99.90;;;;;;5054741;28;20473;-76
2023/04/27 00:43:44;;;;;;;4.03;1.67;;;5.70;99.90;;;;;;5057872;28;20510;-77
2023/04/27 00:46:13;;;;;;;2.10;1.60;;;5.70;99.90;;;;;;5059652;28;20449;-76
2023/04/27 00:48:41;;;;;;;3.33;1.87;;;5.80;99.90;;;;;;5060844;28;20797;-79
2023/04/27 00:51:08;;;;;;;1.97;1.50;;;5.80;99.90;;;;;;5065168;28;20864;-76
2023/04/27 00:53:36;;;;;;;2.80;2.30;;;5.80;99.90;;;;;;5067377;28;20489;-77
2023/04/27 00:56:05;;;;;;;2.20;2.00;;;5.80;99.90;;;;;;5067638;28;20927;-75
2023/04/27 00:58:32;;;;;;;2.03;1.73;;;5.70;99.90;;;;;;5058192;28;20456;-76
2023/04/27 01:00:59;;;;;;;4.00;2.03;;;5.60;99.90;;;;;;5063137;28;20517;-79
2023/04/27 01:03:26;;;;;;;2.40;2.13;;;5.60;99.90;;;;;;5058822;28;20461;-77
2023/04/27 01:05:55;;;;;;;1.97;1.67;;;5.60;99.90;;;;;;5058778;28;20578;-78
2023/04/27 01:08:22;;;;;;;5.00;2.00;;;5.60;99.90;;;;;;5067733;28;20946;-76
2023/04/27 01:10:49;;;;;;;3.00;2.70;;;5.60;99.90;;;;;;5067142;28;21377;-77
2023/04/27 01:13:17;;;;;;;2.43;2.23;;;5.60;99.90;;;;;;5066905;28;20444;-78
2023/04/27 01:15:45;;;;;;;1.93;1.83;;;5.60;99.90;;;;;;5064461;28;20498;-76
2023/04/27 01:18:12;;;;;;;4.80;1.90;;;5.60;99.90;;;;;;5072983;28;20467;-79
2023/04/27 01:20:41;;;;;;;1.77;1.67;;;5.50;99.90;;;;;;5069872;28;20475;-76
2023/04/27 01:23:08;;;;;;;2.50;1.70;;;5.40;99.90;;;;;;5074792;28;20437;-76
2023/04/27 01:25:36;;;;;;;2.70;1.87;;;5.40;99.90;;;;;;5083557;28;20495;-76
2023/04/27 01:28:03;;;;;;;1.93;1.73;;;5.40;99.90;;;;;;5076728;28;20480;-77
2023/04/27 01:30:30;;;;;;;3.50;3.00;;;5.50;99.90;;;;;;5074595;28;20923;-77
2023/04/27 01:32:57;;;;;;;3.77;1.90;;;5.50;99.90;;;;;;5065072;28;20437;-80
2023/04/27 01:35:24;;;;;;;6.57;3.77;;;5.40;99.90;;;;;;5057203;28;20432;-76
2023/04/27 01:37:51;;;;;;;2.70;1.63;;;5.40;99.90;;;;;;5067862;28;20452;-79
2023/04/27 01:40:18;;;;;;;2.73;1.93;;;5.30;99.90;;;;;;5055515;28;20512;-80
2023/04/27 01:42:47;;;;;;;3.53;2.50;;;5.40;99.90;;;;;;5060212;28;21139;-76
2023/04/27 01:45:14;;;;;;;1.80;1.70;;;5.40;99.90;;;;;;5063484;28;20929;-78
2023/04/27 01:47:41;;;;;;;3.87;2.40;;;5.30;99.90;;;;;;5061837;28;20536;-77
2023/04/27 01:50:08;;;;;;;2.90;2.60;;;5.30;99.90;;;;;;5063976;28;20460;-76
2023/04/27 01:52:35;;;;;;;5.10;3.00;;;5.20;99.90;;;;;;5064707;28;20522;-76
2023/04/27 01:55:02;;;;;;;4.30;3.90;;;5.20;99.90;;;;;;5065288;28;20448;-78
2023/04/27 01:57:29;;;;;;;3.63;3.23;;;5.20;99.90;;;;;;5058897;28;20437;-76
2023/04/27 01:59:58;;;;;;;3.83;3.57;;;5.20;99.90;;;;;;5059329;28;20445;-78
2023/04/27 02:02:25;;;;;;;4.40;4.00;;;5.20;99.90;;;;;;5056862;28;20461;-76
2023/04/27 02:04:52;;;;;;;5.80;3.70;;;5.10;99.90;;;;;;5063836;28;20541;-78
2023/04/27 02:07:18;;;;;;;4.13;3.80;;;5.00;99.90;;;;;;5062265;28;20879;-79
2023/04/27 02:09:45;;;;;;;5.30;4.20;;;5.00;99.90;;;;;;5064727;28;20449;-77
2023/04/27 02:12:13;;;;;;;5.20;4.60;;;5.10;99.90;;;;;;5058581;28;20456;-77
2023/04/27 02:14:40;;;;;;;5.87;4.50;;;5.10;99.90;;;;;;5060565;28;20483;-77
2023/04/27 02:17:08;;;;;;;7.20;4.60;;;5.20;99.90;;;;;;5065473;28;20468;-76
2023/04/27 02:19:35;;;;;;;8.40;5.23;;;5.30;99.90;;;;;;5062429;28;20444;-79
2023/04/27 02:22:02;;;;;;;5.73;4.10;;;5.20;99.90;;;;;;5061263;28;20821;-76
2023/04/27 02:24:29;;;;;;;5.57;5.03;;;5.20;99.90;;;;;;5064326;28;20490;-76
2023/04/27 02:26:56;;;;;;;7.77;5.17;;;5.30;99.90;;;;;;5066557;28;20568;-79
2023/04/27 02:29:23;;;;;;;5.50;5.00;;;5.30;99.90;;;;;;5065104;28;21170;-77
2023/04/27 02:31:50;;;;;;;6.33;4.23;;;5.20;99.90;;;;;;5052821;28;20490;-76
2023/04/27 02:34:18;;;;;;;10.43;4.10;;;5.20;99.90;;;;;;5061625;28;20509;-77
2023/04/27 02:36:46;;;;;;;4.67;4.30;;;5.10;99.90;;;;;;5060828;28;20449;-80
2023/04/27 02:39:12;;;;;;;5.70;5.20;;;5.20;99.90;;;;;;5056866;28;20437;-77
2023/04/27 02:41:39;;;;;;;12.70;5.27;;;5.10;99.90;;;;;;5062297;28;20457;-79
2023/04/27 02:44:06;;;;;;;5.30;4.17;;;5.20;99.90;;;;;;5056885;28;20940;-76
2023/04/27 02:46:33;;;;;;;5.23;4.37;;;5.20;99.90;;;;;;5060001;28;20470;-75
2023/04/27 02:49:00;;;;;;;6.77;4.50;;;5.30;99.90;;;;;;5021901;28;20502;-76
2023/04/27 02:51:29;;;;;;;6.20;5.17;;;5.30;99.90;;;;;;5024123;28;20473;-76
2023/04/27 02:53:56;;;;;;;7.67;4.40;;;5.30;99.90;;;;;;5014288;28;20543;-78
2023/04/27 02:56:23;;;;;;;5.80;4.90;;;5.30;99.90;;;;;;5017681;28;20969;-79
2023/04/27 02:58:50;;;;;;;4.47;3.63;;;5.30;99.90;;;;;;5025495;28;20508;-77
2023/04/27 03:01:17;;;;;;;8.10;4.60;;;5.30;99.90;;;;;;5025159;28;20882;-76
2023/04/27 03:03:46;;;;;;;4.60;3.90;;;5.20;99.90;;;;;;5020739;28;20458;-79
2023/04/27 03:06:14;;;;;;;4.30;3.90;;;5.20;99.90;;;;;;5022620;28;20453;-77
2023/04/27 03:08:42;;;;;;;5.17;3.60;;;5.20;99.90;;;;;;5025060;28;20488;-76
2023/04/27 03:11:09;;;;;;;4.43;3.87;;;5.20;99.90;;;;;;5020733;28;20492;-79
2023/04/27 03:13:40;;;;;;;6.00;3.77;;;5.10;99.90;;;;;;5025569;28;20482;-76
2023/04/27 03:16:09;;;;;;;6.10;3.43;;;5.20;99.90;;;;;;5025254;28;20473;-79
2023/04/27 03:18:36;;;;;;;6.53;3.97;;;5.20;99.90;;;;;;5018582;28;20447;-76
2023/04/27 03:21:08;;;;;;;3.77;3.47;;;5.20;99.90;;;;;;5016722;28;20434;-76
2023/04/27 03:23:35;;;;;;;5.57;3.27;;;5.10;99.90;;;;;;5025110;28;20446;-76
2023/04/27 03:26:06;;;;;;;4.80;3.57;;;5.20;99.90;;;;;;5025736;28;20527;-77
2023/04/27 03:28:33;;;;;;;7.03;3.60;;;5.20;99.90;;;;;;5010363;28;20574;-78
2023/04/27 03:31:01;;;;;;;4.90;3.60;;;5.10;99.90;;;;;;5024157;28;20462;-76
2023/04/27 03:33:28;;;;;;;4.90;4.27;;;5.10;99.90;;;;;;5021169;28;20894;-76
2023/04/27 03:35:56;;;;;;;7.23;3.50;;;5.10;99.90;;;;;;5021504;28;20457;-78
2023/04/27 03:38:23;;;;;;;2.77;2.50;;;5.10;99.90;;;;;;5025899;28;20464;-77
2023/04/27 03:40:50;;;;;;;4.73;3.80;;;5.10;99.90;;;;;;5023632;28;20465;-77
2023/04/27 03:43:18;;;;;;;3.23;2.97;;;5.10;99.90;;;;;;5025649;28;20446;-77
2023/04/27 03:45:46;;;;;;;6.80;3.40;;;5.00;99.90;;;;;;5009203;28;20451;-76
2023/04/27 03:48:13;;;;;;;5.13;3.77;;;5.10;99.90;;;;;;5047138;28;20545;-77
2023/04/27 03:50:40;;;;;;;4.00;3.67;;;5.10;99.90;;;;;;5059538;28;20468;-77
2023/04/27 03:53:07;;;;;;;4.13;2.90;;;5.10;99.90;;;;;;5064366;28;20444;-76
2023/04/27 03:55:37;;;;;;;5.30;3.60;;;5.00;99.90;;;;;;5060900;28;20491;-79
2023/04/27 03:58:05;;;;;;;3.77;3.47;;;5.00;99.90;;;;;;5058179;28;20445;-76
2023/04/27 04:00:33;;;;;;;5.13;2.97;;;5.00;99.90;;;;;;5060043;28;20468;-77
2023/04/27 04:03:00;;;;;;;4.33;3.33;;;5.00;99.90;;;;;;5059330;28;20519;-77
2023/04/27 04:05:29;;;;;;;4.70;3.20;;;5.00;99.90;;;;;;5053220;28;20452;-77
2023/04/27 04:07:56;;;;;;;4.40;3.40;;;5.00;99.90;;;;;;5049253;28;20571;-77
2023/04/27 04:10:23;;;;;;;3.90;3.40;;;5.00;99.90;;;;;;5058035;28;20470;-76
2023/04/27 04:12:50;;;;;;;3.60;3.17;;;4.90;99.90;;;;;;5062007;28;20525;-76
2023/04/27 04:15:17;;;;;;;3.80;3.47;;;4.90;99.90;;;;;;5058898;28;20780;-77
2023/04/27 04:17:46;;;;;;;4.67;3.17;;;5.00;99.90;;;;;;5064660;28;20449;-76
2023/04/27 04:20:13;;;;;;;4.30;3.20;;;5.00;99.90;;;;;;5056763;28;20441;-76
2023/04/27 04:22:40;;;;;;;3.10;2.40;;;5.10;99.90;;;;;;5064826;28;20440;-76
2023/04/27 04:25:08;;;;;;;4.07;2.73;;;5.20;99.90;;;;;;5060480;28;21020;-77
2023/04/27 04:27:36;;;;;;;4.53;3.63;;;5.10;99.90;;;;;;5064905;28;20486;-81
2023/04/27 04:30:05;;;;;;;2.60;2.40;;;5.20;99.90;;;;;;5063361;28;20540;-78
2023/04/27 04:32:32;;;;;;;3.23;2.97;;;5.20;99.90;;;;;;5066122;28;20455;-75
2023/04/27 04:35:01;;;;;;;6.23;3.13;;;5.30;99.90;;;;;;5065032;28;20457;-76
2023/04/27 04:37:28;;;;;;;2.60;2.43;;;5.30;99.90;;;;;;5071426;28;20479;-74
2023/04/27 04:39:55;;;;;;;4.27;2.53;;;5.30;99.90;;;;;;5067161;28;20537;-77
2023/04/27 04:42:22;;;;;;;2.63;2.40;;;5.30;99.90;;;;;;5072086;28;20445;-76
2023/04/27 04:44:50;;;;;;;2.63;2.33;;;5.20;99.90;;;;;;5078451;28;20472;-77
2023/04/27 04:47:17;;;;;;;6.33;2.53;;;5.20;99.90;;;;;;5079285;28;20523;-76
2023/04/27 04:49:44;;;;;;;3.40;2.40;;;5.30;99.90;;;;;;5071637;28;20452;-82
2023/04/27 04:52:12;;;;;;;2.93;2.73;;;5.30;99.90;;;;;;5073995;28;20468;-75
2023/04/27 04:54:39;;;;;;;4.70;3.03;;;5.20;99.90;;;;;;5061632;28;20455;-79
2023/04/27 04:57:06;;;;;;;3.07;2.20;;;5.20;99.90;;;;;;5070588;28;20529;-77
2023/04/27 04:59:33;;;;;;;2.70;2.40;;;5.30;99.90;;;;;;5076181;28;20467;-78
2023/04/27 05:02:00;;;;;;;2.90;2.60;;;5.40;99.90;;;;;;5064256;28;20903;-77
2023/04/27 05:04:27;;;;;;;3.40;2.40;;;5.40;99.90;;;;;;5061232;28;20460;-76
2023/04/27 05:06:54;;;;;;;2.67;2.47;;;5.60;99.90;;;;;;5067249;28;20440;-77
2023/04/27 05:09:23;;;;;;;3.03;2.37;;;5.60;99.90;;;;;;5055099;28;20563;-77
2023/04/27 05:11:50;;;;;;;6.43;2.27;;;5.70;99.90;;;;;;5067452;28;20456;-80
2023/04/27 05:14:17;;;;;;;2.93;2.70;;;5.80;99.90;;;;;;5054770;28;20571;-81
2023/04/27 05:16:45;;;;;;;3.03;2.70;;;5.80;99.90;;;;;;5065099;28;20513;-75
2023/04/27 05:19:17;;;;;;;3.73;2.77;;;5.90;99.90;;;;;;5064242;28;20518;-76
2023/04/27 05:21:44;;;;;;;3.90;2.80;;;5.90;99.90;;;;;;5067860;28;20461;-76
2023/04/27 05:24:11;;;;;;;3.17;2.27;;;5.90;99.90;;;;;;5071805;28;20813;-76
2023/04/27 05:26:39;;;;;;;4.53;2.93;;;5.90;99.90;;;;;;5059364;28;20464;-77
2023/04/27 05:29:06;;;;;;;4.70;2.67;;;6.00;99.90;;;;;;5067838;28;20586;-76
2023/04/27 05:31:33;;;;;;;4.10;2.40;;;6.00;99.90;;;;;;5067047;28;20516;-75
2023/04/27 05:34:00;;;;;;;5.00;2.90;;;6.00;99.90;;;;;;5066328;28;20460;-77
2023/04/27 05:36:28;;;;;;;5.10;2.20;;;6.00;99.90;;;;;;5056925;28;20571;-76
2023/04/27 05:38:55;;;;;;;3.47;3.27;;;6.00;99.90;;;;;;5066365;28;20583;-78
2023/04/27 05:41:22;;;;;;;3.10;2.80;;;5.90;99.90;;;;;;5064140;28;21276;-79
2023/04/27 05:43:52;;;;;;;4.73;3.07;;;6.10;99.90;;;;;;5067700;28;20451;-76
2023/04/27 05:46:19;;;;;;;5.87;2.00;;;6.20;99.90;;;;;;5067628;28;20468;-76
2023/04/27 05:48:46;;;;;;;2.43;2.33;;;6.30;99.90;;;;;;5070076;28;20484;-75
2023/04/27 05:51:13;;;;;;;6.33;3.13;;;6.20;99.90;;;;;;5065217;28;20436;-76
2023/04/27 05:53:41;;;;;;;4.50;1.80;;;6.30;99.90;;;;;;5062628;28;20528;-77
2023/04/27 05:56:10;;;;;;;5.40;3.50;;;6.50;99.90;;;;;;5063229;28;20453;-76
2023/04/27 05:58:37;;;;;;;4.40;3.40;;;6.70;99.90;;;;;;5067884;28;20934;-76
2023/04/27 06:01:06;;;;;;;3.83;2.70;;;6.80;99.90;;;;;;5064870;28;20522;-76
2023/04/27 06:03:33;;;;;;;3.40;2.50;;;6.90;99.90;;;;;;5065769;28;20456;-75
2023/04/27 06:06:01;;;;;;;6.57;3.10;;;7.00;99.90;;;;;;5061450;28;20460;-76
2023/04/27 06:08:28;;;;;;;4.20;3.13;;;7.10;99.90;;;;;;5063758;28;20512;-76
2023/04/27 06:10:55;;;;;;;5.27;3.47;;;6.90;99.90;;;;;;5065459;28;20951;-75
2023/04/27 06:13:22;;;;;;;5.23;4.73;;;7.00;99.90;;;;;;5068184;28;20460;-75
2023/04/27 06:15:49;;;;;;;4.73;2.93;;;7.00;99.90;;;;;;5059562;28;20465;-75
2023/04/27 06:18:17;;;;;;;4.40;3.27;;;7.20;99.90;;;;;;5064201;28;20448;-76
2023/04/27 06:20:45;;;;;;;3.53;2.70;;;7.20;99.90;;;;;;5062751;28;20534;-76
2023/04/27 06:23:12;;;;;;;7.93;2.93;;;7.30;99.90;;;;;;5051752;28;20766;-75
2023/04/27 06:25:39;;;;;;;6.83;3.60;;;7.60;99.90;;;;;;5062355;28;20432;-76
2023/04/27 06:28:07;;;;;;;3.23;3.03;;;7.70;99.90;;;;;;5056981;28;20494;-75
2023/04/27 06:30:33;;;;;;;7.00;3.40;;;7.90;99.90;;;;;;5064186;28;20522;-76
2023/04/27 06:33:00;;;;;;;2.47;2.23;;;8.20;99.90;;;;;;5056474;28;20456;-78
2023/04/27 06:35:29;;;;;;;5.27;3.43;;;8.30;99.90;;;;;;5057310;28;20464;-76
2023/04/27 06:37:57;;;;;;;3.70;2.70;;;8.20;99.90;;;;;;5063496;28;20446;-88
2023/04/27 06:40:25;;;;;;;3.13;2.73;;;8.20;99.90;;;;;;5053443;28;20448;-77
2023/04/27 06:42:52;;;;;;;3.93;3.03;;;8.10;99.90;;;;;;5060735;28;21047;-75
2023/04/27 06:45:19;;;;;;;3.53;2.53;;;8.10;99.90;;;;;;5062212;28;21199;-75
2023/04/27 06:47:46;;;;;;;6.23;3.43;;;8.00;99.90;;;;;;5064121;28;20571;-76
2023/04/27 06:50:15;;;;;;;4.00;2.93;;;8.20;99.90;;;;;;5061578;28;20621;-76
2023/04/27 06:52:43;;;;;;;7.73;6.63;;;8.60;99.90;;;;;;5062939;28;20467;-78
2023/04/27 06:55:10;;;;;;;5.43;3.43;;;8.60;99.90;;;;;;5063834;28;20440;-80
2023/04/27 06:57:37;;;;;;;2.57;2.30;;;8.90;99.90;;;;;;5060215;28;20457;-76
2023/04/27 07:00:05;;;;;;;5.33;3.50;;;9.10;99.90;;;;;;5063919;28;20482;-77
2023/04/27 07:02:32;;;;;;;3.83;3.03;;;9.10;99.90;;;;;;5056568;28;20468;-76
2023/04/27 07:04:59;;;;;;;3.80;3.00;;;9.00;99.90;;;;;;5055582;28;20464;-77
2023/04/27 07:07:26;;;;;;;4.00;3.17;;;9.00;99.90;;;;;;5051744;28;20495;-76
2023/04/27 07:09:55;;;;;;;4.57;4.13;;;9.00;99.90;;;;;;5055448;28;20556;-79
2023/04/27 07:12:22;;;;;;;5.67;4.20;;;9.30;99.90;;;;;;5060658;28;20510;-75
2023/04/27 07:14:49;;;;;;;5.80;3.93;;;9.30;99.90;;;;;;5061165;28;20460;-76
2023/04/27 07:17:16;;;;;;;3.80;3.50;;;9.50;99.90;;;;;;5054318;28;20444;-76
2023/04/27 07:19:43;;;;;;;22.77;8.20;;;9.40;99.90;;;;;;5054872;28;20453;-76
2023/04/27 07:22:10;;;;;;;4.77;3.03;;;9.60;99.90;;;;;;5061253;28;20464;-75
2023/04/27 07:24:37;;;;;;;6.33;2.83;;;9.40;99.90;;;;;;5049969;28;20437;-79
2023/04/27 07:27:06;;;;;;;4.43;4.03;;;9.50;99.90;;;;;;5058016;28;20448;-76
2023/04/27 07:29:33;;;;;;;5.00;3.17;;;9.90;99.90;;;;;;5062910;28;20529;-76
2023/04/27 07:31:59;;;;;;;3.60;2.60;;;10.10;99.90;;;;;;5065875;28;20945;-78
2023/04/27 07:34:27;;;;;;;4.53;3.77;;;9.90;99.90;;;;;;5064126;28;20917;-76
2023/04/27 07:36:54;;;;;;;7.17;4.80;;;9.80;99.90;;;;;;5066091;28;20453;-75
2023/04/27 07:39:21;;;;;;;14.77;8.30;;;9.80;99.90;;;;;;5065105;28;20471;-76
2023/04/27 07:41:48;;;;;;;17.17;10.07;;;10.20;99.90;;;;;;5063497;28;20526;-78
2023/04/27 07:44:18;;;;;;;57.83;32.10;;;10.80;99.90;;;;;;5065790;28;20461;-79
2023/04/27 07:46:46;;;;;;;9.87;5.50;;;11.00;99.70;;;;;;5066155;28;20444;-78
2023/04/27 07:49:13;;;;;;;4.50;2.87;;;11.00;99.30;;;;;;5061139;28;20568;-76
2023/04/27 07:51:40;;;;;;;12.53;8.60;;;10.60;98.60;;;;;;5060393;28;20462;-77
2023/04/27 07:54:07;;;;;;;7.80;4.20;;;11.00;99.40;;;;;;5067054;28;20448;-76
2023/04/27 07:56:34;;;;;;;3.53;3.23;;;10.70;99.00;;;;;;5060171;28;20962;-76
2023/04/27 07:59:01;;;;;;;6.13;3.13;;;10.60;98.60;;;;;;5070350;28;20447;-76
2023/04/27 08:01:30;;;;;;;43.23;29.03;;;10.50;99.10;;;;;;5072867;28;20445;-76
2023/04/27 08:03:57;;;;;;;133.13;86.33;;;10.70;98.60;;;;;;5074957;28;20456;-78
2023/04/27 08:06:24;;;;;;;14.40;8.33;;;11.60;98.10;;;;;;5077920;28;21165;-76
2023/04/27 08:08:51;;;;;;;118.73;67.90;;;11.80;97.80;;;;;;5087009;28;20506;-75
2023/04/27 08:11:18;;;;;;;158.57;96.53;;;11.80;97.60;;;;;;5081449;28;20439;-76
2023/04/27 08:13:45;;;;;;;199.70;124.43;;;12.50;96.20;;;;;;5075026;28;20448;-74
2023/04/27 08:16:12;;;;;;;25.47;16.40;;;13.10;95.90;;;;;;5074817;28;20448;-76
2023/04/27 08:18:40;;;;;;;3.67;3.07;;;13.20;95.00;;;;;;5069898;28;20982;-80
2023/04/27 08:21:07;;;;;;;5.03;3.53;;;12.30;92.70;;;;;;5068799;28;20461;-76
2023/04/27 08:23:35;;;;;;;13.00;9.20;;;12.10;96.40;;;;;;5068942;28;20464;-76
2023/04/27 08:26:03;;;;;;;5.40;3.43;;;12.50;96.20;;;;;;5068846;28;20835;-79
2023/04/27 08:28:30;;;;;;;3.73;3.20;;;12.00;96.10;;;;;;5068715;28;20966;-79
2023/04/27 08:30:57;;;;;;;3.10;2.60;;;12.10;94.10;;;;;;5064945;28;20852;-77
2023/04/27 08:33:24;;;;;;;2.87;2.67;;;12.40;93.50;;;;;;5067233;28;20456;-76
2023/04/27 08:35:54;;;;;;;8.33;4.33;;;12.30;92.90;;;;;;5067557;28;20448;-76
2023/04/27 08:38:21;;;;;;;7.00;3.03;;;12.60;93.20;;;;;;5068749;28;20501;-79
2023/04/27 08:40:48;;;;;;;5.57;3.00;;;12.10;94.20;;;;;;5068341;28;20450;-76
2023/04/27 08:43:15;;;;;;;6.50;2.97;;;12.10;94.20;;;;;;5063868;28;20519;-77
2023/04/27 08:45:48;;;;;;;7.57;3.50;;;11.90;94.00;;;;;;5066302;28;20542;-76
2023/04/27 08:48:15;;;;;;;3.10;2.83;;;11.50;95.00;;;;;;5065198;28;20502;-76
2023/04/27 08:50:44;;;;;;;3.67;3.33;;;11.80;95.70;;;;;;5068767;28;20849;-76
2023/04/27 08:53:20;;;;;;;3.40;2.90;;;12.00;92.80;;;;;;5067124;28;20456;-76
2023/04/27 08:55:47;;;;;;;4.77;3.10;;;12.00;94.00;;;;;;5064803;28;20450;-76
2023/04/27 08:58:14;;;;;;;4.00;3.03;;;11.80;94.10;;;;;;5067546;28;21034;-75
2023/04/27 09:00:42;;;;;;;3.50;3.20;;;12.00;94.80;;;;;;5063486;28;20444;-76
2023/04/27 09:03:19;;;;;;;3.47;2.87;;;12.30;93.80;;;;;;5060364;28;21005;-75
2023/04/27 09:05:47;;;;;;;3.37;2.53;;;12.40;92.20;;;;;;5057381;28;20441;-77
2023/04/27 09:08:14;;;;;;;2.70;2.50;;;12.60;91.60;;;;;;5064544;28;20443;-76
2023/04/27 09:10:46;;;;;;;8.90;4.83;;;12.10;91.30;;;;;;5058672;28;20533;-75
2023/04/27 09:13:13;;;;;;;4.47;3.13;;;12.40;93.30;;;;;;5066861;28;20505;-78
2023/04/27 09:15:45;;;;;;;7.03;3.00;;;13.00;94.40;;;;;;5061927;28;20456;-78
2023/04/27 09:18:17;;;;;;;3.57;2.97;;;13.10;93.30;;;;;;5059984;28;20925;-77
2023/04/27 09:20:45;;;;;;;3.17;2.87;;;12.70;90.90;;;;;;5057666;28;20447;-77
2023/04/27 09:23:12;;;;;;;4.10;2.57;;;12.70;92.40;;;;;;5063401;28;20950;-75
2023/04/27 09:25:39;;;;;;;2.97;2.20;;;12.60;90.80;;;;;;5063446;28;20449;-75
2023/04/27 09:28:08;;;;;;;4.43;3.03;;;12.60;91.80;;;;;;5063127;28;20476;-77
2023/04/27 09:30:36;;;;;;;3.00;2.67;;;12.80;91.30;;;;;;5065840;28;20490;-76
2023/04/27 09:33:04;;;;;;;4.67;2.40;;;12.90;89.40;;;;;;5063357;28;20436;-76
2023/04/27 09:35:33;;;;;;;2.40;2.07;;;13.10;91.10;;;;;;5066976;28;20486;-75
2023/04/27 09:38:01;;;;;;;3.63;2.87;;;13.30;87.40;;;;;;5066470;28;20512;-75
2023/04/27 09:40:30;;;;;;;3.43;2.33;;;13.40;90.40;;;;;;5065485;28;20464;-76
2023/04/27 09:42:59;;;;;;;4.80;2.30;;;13.50;86.20;;;;;;5063071;28;20464;-75
2023/04/27 09:45:28;;;;;;;3.43;2.10;;;13.90;85.80;;;;;;5061610;28;20537;-78
2023/04/27 09:47:55;;;;;;;2.00;1.90;;;14.00;81.10;;;;;;5064379;28;20601;-79
2023/04/27 09:50:22;;;;;;;4.30;2.77;;;14.10;80.50;;;;;;5051411;28;20611;-81
2023/04/27 09:52:49;;;;;;;3.03;2.80;;;14.10;78.80;;;;;;5059305;28;20517;-80
2023/04/27 09:55:19;;;;;;;4.37;2.80;;;13.60;81.50;;;;;;5055586;28;20944;-77
2023/04/27 09:57:55;;;;;;;3.40;2.00;;;13.70;83.30;;;;;;5047542;28;20445;-80
2023/04/27 10:00:39;;;;;;;3.70;3.40;;;13.60;81.70;;;;;;5058776;28;20994;-78
2023/04/27 10:03:20;;;;;;;8.47;3.10;;;13.70;85.50;;;;;;5059432;28;20462;-78
2023/04/27 10:06:27;;;;;;;3.27;2.60;;;14.00;82.70;;;;;;5058861;28;20536;-77
2023/04/27 10:08:55;;;;;;;2.57;2.37;;;14.30;77.30;;;;;;5050281;28;20448;-80
2023/04/27 10:11:37;;;;;;;2.67;1.90;;;14.50;74.80;;;;;;5048826;28;20445;-78
2023/04/27 10:14:08;;;;;;;3.23;2.60;;;14.10;75.30;;;;;;5061779;28;20473;-79
2023/04/27 10:16:45;;;;;;;5.03;1.77;;;14.20;77.70;;;;;;5059644;28;20458;-78
2023/04/27 10:19:13;;;;;;;2.93;2.07;;;14.10;71.30;;;;;;5057969;28;20460;-79
2023/04/27 10:21:55;;;;;;;4.27;2.03;;;14.30;69.60;;;;;;5063000;28;21123;-77
2023/04/27 10:24:34;;;;;;;3.23;2.20;;;14.50;65.30;;;;;;5059626;28;20543;-77
2023/04/27 10:27:04;;;;;;;3.57;1.43;;;14.60;66.60;;;;;;5063308;28;20444;-77
2023/04/27 10:29:38;;;;;;;3.53;2.40;;;14.70;68.50;;;;;;5061317;28;20539;-80
2023/04/27 10:32:11;;;;;;;4.30;2.57;;;14.80;72.50;;;;;;5068566;28;20568;-80
2023/04/27 10:34:40;;;;;;;3.40;1.87;;;14.90;71.50;;;;;;5067180;28;20886;-87
2023/04/27 10:37:08;;;;;;;4.93;2.03;;;14.90;68.30;;;;;;5054455;28;20561;-80
2023/04/27 10:39:37;;;;;;;3.17;2.47;;;14.80;63.50;;;;;;5065910;28;20541;-77
2023/04/27 10:42:04;;;;;;;3.13;2.10;;;14.80;67.40;;;;;;5057999;28;20469;-77
2023/04/27 10:44:33;;;;;;;3.57;2.33;;;14.30;66.50;;;;;;5057142;28;20460;-77
2023/04/27 10:47:02;;;;;;;2.40;2.20;;;14.00;68.80;;;;;;5062330;28;20589;-78
2023/04/27 10:49:30;;;;;;;3.20;2.90;;;14.20;66.50;;;;;;5062541;28;20491;-77
2023/04/27 10:52:03;;;;;;;3.63;2.27;;;14.40;63.60;;;;;;5059810;28;20476;-77
2023/04/27 10:54:31;;;;;;;3.30;1.70;;;14.60;70.60;;;;;;5053632;28;20465;-77
2023/04/27 10:57:03;;;;;;;4.10;2.23;;;14.20;66.30;;;;;;5056614;28;20464;-78
2023/04/27 10:59:31;;;;;;;2.40;1.80;;;14.40;66.60;;;;;;5061977;28;20464;-79
2023/04/27 11:01:58;;;;;;;2.67;2.03;;;14.70;67.10;;;;;;5059375;28;20456;-77
2023/04/27 11:04:38;;;;;;;2.23;2.03;;;14.90;61.90;;;;;;5058239;28;20461;-78
2023/04/27 11:07:07;;;;;;;3.20;1.77;;;15.20;63.70;;;;;;5055818;28;20578;-77
2023/04/27 11:09:36;;;;;;;2.73;2.53;;;15.10;63.10;;;;;;5057554;28;20456;-80
2023/04/27 11:12:06;;;;;;;2.87;2.60;;;14.60;65.20;;;;;;5054355;28;20460;-77
2023/04/27 11:14:34;;;;;;;6.33;2.53;;;14.20;65.90;;;;;;5062546;28;20486;-76
2023/04/27 11:17:01;;;;;;;4.33;2.03;;;14.30;64.70;;;;;;5058991;28;21169;-77
2023/04/27 11:19:29;;;;;;;2.50;1.73;;;14.00;73.10;;;;;;5057160;28;20449;-78
2023/04/27 11:22:04;;;;;;;3.47;2.60;;;13.90;69.10;;;;;;5065810;28;20460;-77
2023/04/27 11:24:31;;;;;;;2.00;1.70;;;14.10;66.50;;;;;;5069034;28;20456;-76
2023/04/27 11:26:58;;;;;;;2.77;2.30;;;14.20;72.40;;;;;;5065940;28;20585;-77
2023/04/27 11:29:25;;;;;;;6.00;2.20;;;14.70;65.70;;;;;;5074021;28;20460;-78
2023/04/27 11:31:52;;;;;;;2.83;1.97;;;15.30;64.40;;;;;;5055434;28;20442;-76
2023/04/27 11:34:21;;;;;;;2.63;1.67;;;15.20;61.60;;;;;;5060796;28;20449;-77
2023/04/27 11:37:00;;;;;;;2.40;1.60;;;15.20;64.00;;;;;;5065733;28;20458;-76
2023/04/27 11:39:28;;;;;;;5.80;2.23;;;15.50;61.20;;;;;;5068865;28;20452;-77
2023/04/27 11:41:56;;;;;;;2.70;1.93;;;15.70;65.30;;;;;;5066840;28;20506;-74
2023/04/27 11:44:27;;;;;;;5.00;2.03;;;16.40;60.40;;;;;;5068664;28;20452;-75
2023/04/27 11:46:54;;;;;;;8.00;1.80;;;16.20;61.30;;;;;;5065093;28;20469;-75
2023/04/27 11:49:21;;;;;;;3.10;1.87;;;16.50;59.50;;;;;;5065752;28;20493;-78
2023/04/27 11:51:48;;;;;;;3.07;2.87;;;16.50;66.10;;;;;;5060086;28;20837;-74
2023/04/27 11:54:15;;;;;;;2.77;2.57;;;16.30;59.60;;;;;;5057978;28;20461;-76
2023/04/27 11:56:45;;;;;;;2.47;2.27;;;16.40;61.00;;;;;;5063886;28;20555;-78
2023/04/27 11:59:19;;;;;;;5.93;2.50;;;16.40;62.80;;;;;;5066345;28;20505;-75
2023/04/27 12:01:46;;;;;;;4.90;2.50;;;16.20;60.90;;;;;;5061115;28;20980;-78
2023/04/27 12:04:13;;;;;;;3.53;2.23;;;15.90;59.90;;;;;;5061095;28;20457;-77
2023/04/27 12:06:41;;;;;;;2.80;2.20;;;15.80;59.80;;;;;;5064867;28;20445;-77
2023/04/27 12:09:08;;;;;;;2.73;2.13;;;15.90;56.80;;;;;;5056285;28;20457;-75
2023/04/27 12:11:34;;;;;;;2.37;2.03;;;16.00;53.10;;;;;;5061841;28;21282;-78
2023/04/27 12:14:03;;;;;;;3.37;2.30;;;16.10;53.70;;;;;;5066675;28;20452;-76
2023/04/27 12:16:30;;;;;;;2.30;2.10;;;16.00;53.50;;;;;;5065172;28;20530;-76
2023/04/27 12:18:57;;;;;;;2.47;2.20;;;15.50;56.60;;;;;;5064981;28;20467;-75
2023/04/27 12:21:25;;;;;;;3.50;2.07;;;15.20;55.40;;;;;;5068064;28;20529;-76
2023/04/27 12:23:52;;;;;;;2.30;1.93;;;15.20;56.60;;;;;;5067036;28;20490;-79
2023/04/27 12:26:19;;;;;;;3.77;2.97;;;15.20;60.60;;;;;;5058632;28;20460;-75
2023/04/27 12:28:46;;;;;;;3.53;2.53;;;15.40;59.30;;;;;;5062985;28;20543;-77
2023/04/27 12:31:17;;;;;;;3.93;2.17;;;15.20;56.50;;;;;;5065784;28;20567;-77
2023/04/27 12:33:44;;;;;;;4.70;2.43;;;15.40;57.40;;;;;;5067997;28;20915;-77
2023/04/27 12:36:11;;;;;;;4.57;2.00;;;15.80;56.50;;;;;;5066318;28;20453;-76
2023/04/27 12:38:38;;;;;;;4.07;3.00;;;15.90;56.80;;;;;;5064255;28;20493;-74
2023/04/27 12:41:05;;;;;;;6.80;3.30;;;15.80;56.00;;;;;;5065791;28;20468;-76
2023/04/27 12:43:34;;;;;;;3.60;2.50;;;15.80;53.50;;;;;;5066416;28;20503;-75
2023/04/27 12:46:00;;;;;;;2.83;2.60;;;15.90;58.80;;;;;;5060536;28;20441;-76
2023/04/27 12:48:30;;;;;;;4.60;2.83;;;16.10;57.00;;;;;;5063217;28;20480;-76
2023/04/27 12:50:57;;;;;;;5.43;3.20;;;16.40;60.30;;;;;;5060358;28;20485;-75
2023/04/27 12:53:24;;;;;;;2.73;2.27;;;16.00;57.80;;;;;;5064099;28;20456;-75
2023/04/27 12:55:52;;;;;;;3.17;2.30;;;16.20;57.90;;;;;;5064462;28;20456;-77
2023/04/27 12:58:19;;;;;;;4.43;2.63;;;16.40;56.50;;;;;;5061464;28;20461;-77